createdAt,value
2023-09-01T00:01:22.973Z,23.26
2023-09-01T00:04:10.102Z,23.21
2023-09-01T00:06:37.121Z,22.81
2023-09-01T00:09:05.602Z,22.82
2023-09-01T00:11:32.511Z,23.02
2023-09-01T00:13:59.455Z,22.75
2023-09-01T00:16:27.494Z,22.87
2023-09-01T00:18:54.593Z,22.97
2023-09-01T00:21:21.450Z,22.78
2023-09-01T00:23:48.355Z,22.75
2023-09-01T00:26:15.465Z,22.78
2023-09-01T00:28:46.990Z,22.76
2023-09-01T00:31:16.968Z,22.78
2023-09-01T00:33:43.964Z,22.91
2023-09-01T00:36:11.050Z,22.52
2023-09-01T00:38:40.631Z,22.41
2023-09-01T00:41:07.772Z,22.60
2023-09-01T00:43:35.337Z,22.63
2023-09-01T00:46:02.644Z,22.59
2023-09-01T00:48:29.616Z,22.35
2023-09-01T00:50:56.777Z,22.48
2023-09-01T00:53:23.646Z,22.70
2023-09-01T00:55:52.662Z,22.42
2023-09-01T00:58:20.215Z,22.44
2023-09-01T01:00:47.125Z,22.51
2023-09-01T01:03:15.172Z,22.57
2023-09-01T01:06:10.677Z,22.63
2023-09-01T01:08:37.520Z,22.72
2023-09-01T01:11:45.743Z,23.10
2023-09-01T01:14:16.991Z,23.14
2023-09-01T01:16:44.670Z,23.05
2023-09-01T01:20:03.533Z,22.89
2023-09-01T01:23:11.052Z,22.67
2023-09-01T01:25:45.392Z,22.49
2023-09-01T01:28:12.634Z,22.44
2023-09-01T01:30:40.183Z,22.40
2023-09-01T01:33:15.725Z,22.30
2023-09-01T01:35:52.607Z,22.34
2023-09-01T01:38:27.109Z,22.22
2023-09-01T01:41:11.087Z,22.18
2023-09-01T01:43:40.402Z,22.27
2023-09-01T01:46:07.684Z,22.25
2023-09-01T01:48:41.238Z,22.33
2023-09-01T01:51:08.513Z,22.11
2023-09-01T01:53:37.015Z,22.06
2023-09-01T01:56:05.068Z,22.02
2023-09-01T01:58:32.363Z,21.89
2023-09-01T02:00:59.863Z,22.10
2023-09-01T02:03:26.865Z,22.26
2023-09-01T02:05:56.091Z,22.29
2023-09-01T02:08:24.032Z,22.27
2023-09-01T02:10:50.903Z,22.17
2023-09-01T02:13:17.829Z,22.08
2023-09-01T02:15:52.685Z,22.34
2023-09-01T02:18:20.653Z,22.31
2023-09-01T02:20:47.716Z,22.13
2023-09-01T02:23:17.606Z,22.04
2023-09-01T02:25:47.666Z,22.11
2023-09-01T02:28:14.776Z,22.06
2023-09-01T02:30:41.929Z,21.95
2023-09-01T02:33:08.921Z,22.08
2023-09-01T02:35:45.656Z,21.82
2023-09-01T02:38:13.461Z,21.92
2023-09-01T02:40:41.573Z,21.57
2023-09-01T02:43:08.499Z,21.59
2023-09-01T02:45:35.475Z,21.85
2023-09-01T02:48:02.463Z,21.59
2023-09-01T02:50:29.386Z,21.62
2023-09-01T02:52:56.242Z,21.28
2023-09-01T02:55:23.082Z,21.08
2023-09-01T02:57:50.100Z,21.43
2023-09-01T03:00:19.845Z,21.49
2023-09-01T03:02:48.209Z,21.58
2023-09-01T03:05:15.452Z,21.38
2023-09-01T03:07:42.702Z,21.63
2023-09-01T03:10:10.415Z,21.53
2023-09-01T03:12:39.782Z,21.47
2023-09-01T03:15:08.713Z,21.59
2023-09-01T03:17:35.965Z,21.60
2023-09-01T03:20:05.613Z,21.45
2023-09-01T03:22:32.916Z,21.53
2023-09-01T03:25:01.212Z,21.51
2023-09-01T03:27:28.463Z,21.50
2023-09-01T03:29:56.676Z,21.31
2023-09-01T03:32:28.154Z,21.43
2023-09-01T03:34:55.249Z,21.30
2023-09-01T03:37:23.489Z,21.36
2023-09-01T03:39:50.463Z,21.32
2023-09-01T03:42:18.144Z,21.36
2023-09-01T03:44:45.199Z,21.14
2023-09-01T03:47:12.053Z,21.33
2023-09-01T03:49:38.896Z,21.43
2023-09-01T03:52:06.074Z,21.22
2023-09-01T03:54:32.999Z,21.29
2023-09-01T03:57:00.626Z,21.42
2023-09-01T03:59:27.573Z,21.28
2023-09-01T04:01:54.507Z,21.33
2023-09-01T04:04:21.538Z,21.58
2023-09-01T04:06:48.484Z,21.62
2023-09-01T04:09:15.575Z,21.68
2023-09-01T04:11:42.712Z,21.52
2023-09-01T04:14:11.901Z,21.65
2023-09-01T04:16:42.149Z,21.56
2023-09-01T04:19:09.080Z,21.79
2023-09-01T04:21:37.133Z,21.19
2023-09-01T04:24:05.537Z,21.26
2023-09-01T04:26:32.803Z,21.23
2023-09-01T04:28:59.636Z,21.39
2023-09-01T04:31:30.632Z,21.80
2023-09-01T04:34:01.713Z,21.56
2023-09-01T04:36:41.142Z,21.38
2023-09-01T04:39:13.986Z,21.73
2023-09-01T04:41:41.810Z,21.58
2023-09-01T04:44:08.894Z,21.90
2023-09-01T04:46:37.076Z,21.83
2023-09-01T04:49:04.170Z,22.02
2023-09-01T04:51:31.123Z,22.18
2023-09-01T04:53:58.022Z,22.04
2023-09-01T04:56:25.020Z,22.18
2023-09-01T04:58:51.856Z,22.00
2023-09-01T05:01:19.514Z,21.79
2023-09-01T05:03:46.521Z,22.01
2023-09-01T05:06:13.540Z,22.18
2023-09-01T05:08:40.573Z,21.95
2023-09-01T05:11:08.199Z,22.19
2023-09-01T05:13:36.723Z,22.41
2023-09-01T05:16:04.340Z,22.72
2023-09-01T05:18:31.401Z,22.92
2023-09-01T05:20:58.326Z,23.02
2023-09-01T05:23:29.818Z,23.01
2023-09-01T05:25:57.408Z,23.05
2023-09-01T05:28:24.347Z,23.40
2023-09-01T05:30:51.477Z,23.65
2023-09-01T05:33:19.021Z,23.87
2023-09-01T05:35:45.947Z,24.23
2023-09-01T05:38:13.250Z,24.32
2023-09-01T05:40:40.457Z,24.39
2023-09-01T05:43:07.517Z,24.51
2023-09-01T05:45:34.416Z,24.34
2023-09-01T05:48:01.403Z,24.49
2023-09-01T05:50:29.554Z,24.73
2023-09-01T05:52:56.445Z,24.76
2023-09-01T05:55:23.295Z,25.02
2023-09-01T05:57:50.208Z,25.06
2023-09-01T06:00:17.558Z,25.06
2023-09-01T06:02:44.438Z,25.06
2023-09-01T06:05:11.337Z,25.31
2023-09-01T06:07:38.927Z,25.44
2023-09-01T06:10:06.464Z,25.56
2023-09-01T06:12:33.338Z,25.39
2023-09-01T06:15:00.238Z,25.64
2023-09-01T06:17:40.150Z,25.30
2023-09-01T06:20:08.282Z,25.53
2023-09-01T06:22:35.123Z,25.69
2023-09-01T06:25:04.451Z,26.02
2023-09-01T06:27:31.339Z,25.86
2023-09-01T06:29:58.499Z,25.91
2023-09-01T06:32:25.506Z,25.95
2023-09-01T06:34:52.950Z,25.96
2023-09-01T06:37:19.832Z,26.07
2023-09-01T06:39:46.811Z,26.26
2023-09-01T06:42:13.684Z,26.23
2023-09-01T06:44:40.760Z,26.16
2023-09-01T06:47:07.672Z,26.37
2023-09-01T06:49:34.531Z,26.66
2023-09-01T06:52:01.452Z,26.72
2023-09-01T06:54:28.448Z,26.53
2023-09-01T06:56:55.333Z,26.48
2023-09-01T06:59:25.526Z,26.54
2023-09-01T07:01:52.699Z,26.49
2023-09-01T07:04:19.605Z,26.67
2023-09-01T07:06:46.533Z,26.74
2023-09-01T07:09:13.458Z,26.79
2023-09-01T07:11:40.377Z,26.94
2023-09-01T07:14:07.278Z,27.03
2023-09-01T07:16:34.115Z,27.01
2023-09-01T07:19:00.942Z,27.06
2023-09-01T07:21:27.784Z,27.13
2023-09-01T07:23:54.665Z,27.14
2023-09-01T07:26:21.610Z,27.34
2023-09-01T07:28:48.502Z,27.47
2023-09-01T07:31:15.537Z,27.71
2023-09-01T07:33:45.297Z,27.95
2023-09-01T07:36:12.595Z,27.84
2023-09-01T07:38:39.796Z,27.77
2023-09-01T07:41:09.172Z,27.93
2023-09-01T07:43:36.385Z,28.23
2023-09-01T07:46:04.399Z,28.36
2023-09-01T07:48:32.100Z,28.43
2023-09-01T07:50:59.266Z,28.60
2023-09-01T07:53:26.130Z,28.58
2023-09-01T07:55:53.236Z,28.75
2023-09-01T07:58:20.814Z,28.66
2023-09-01T08:00:47.995Z,28.74
2023-09-01T08:03:14.932Z,28.84
2023-09-01T08:05:42.089Z,29.10
2023-09-01T08:08:09.178Z,29.24
2023-09-01T08:10:36.315Z,29.17
2023-09-01T08:13:03.551Z,28.85
2023-09-01T08:15:30.467Z,29.14
2023-09-01T08:17:57.422Z,29.30
2023-09-01T08:20:24.524Z,29.13
2023-09-01T08:22:51.440Z,29.40
2023-09-01T08:25:19.011Z,29.64
2023-09-01T08:27:46.080Z,29.72
2023-09-01T08:30:14.511Z,29.95
2023-09-01T08:32:42.647Z,30.02
2023-09-01T08:35:11.103Z,30.10
2023-09-01T08:37:38.315Z,30.21
2023-09-01T08:40:06.357Z,30.21
2023-09-01T08:42:34.512Z,30.16
2023-09-01T08:45:02.871Z,30.23
2023-09-01T08:47:36.838Z,30.41
2023-09-01T08:50:04.357Z,30.27
2023-09-01T08:52:34.520Z,30.41
2023-09-01T08:55:01.527Z,30.46
2023-09-01T08:57:28.443Z,30.37
2023-09-01T08:59:55.495Z,30.44
2023-09-01T09:02:22.338Z,30.54
2023-09-01T09:04:49.799Z,30.61
2023-09-01T09:07:19.111Z,30.57
2023-09-01T09:09:57.403Z,30.50
2023-09-01T09:12:34.600Z,30.71
2023-09-01T09:15:02.237Z,30.82
2023-09-01T09:17:49.980Z,30.92
2023-09-01T09:20:19.487Z,30.80
2023-09-01T09:23:01.856Z,30.73
2023-09-01T09:25:36.655Z,30.86
2023-09-01T09:28:16.762Z,31.00
2023-09-01T09:30:54.068Z,31.26
2023-09-01T09:33:29.209Z,31.10
2023-09-01T09:35:56.197Z,31.17
2023-09-01T09:38:23.524Z,31.25
2023-09-01T09:40:58.186Z,31.37
2023-09-01T09:43:25.251Z,31.36
2023-09-01T09:45:56.020Z,31.60
2023-09-01T09:48:23.186Z,31.83
2023-09-01T09:50:53.287Z,31.84
2023-09-01T09:53:25.100Z,31.74
2023-09-01T09:55:53.819Z,31.97
2023-09-01T09:58:30.732Z,32.09
2023-09-01T10:01:03.959Z,32.15
2023-09-01T10:03:31.464Z,32.02
2023-09-01T10:06:00.423Z,31.84
2023-09-01T10:08:29.290Z,32.03
2023-09-01T10:10:59.220Z,32.27
2023-09-01T10:13:27.213Z,32.16
2023-09-01T10:15:56.585Z,32.28
2023-09-01T10:18:25.250Z,32.42
2023-09-01T10:20:53.338Z,32.57
2023-09-01T10:23:20.780Z,32.49
2023-09-01T10:26:30.096Z,32.57
2023-09-01T10:28:58.221Z,32.78
2023-09-01T10:31:25.695Z,32.99
2023-09-01T10:34:16.492Z,32.83
2023-09-01T10:36:46.843Z,33.01
2023-09-01T10:39:28.386Z,33.10
2023-09-01T10:41:59.636Z,33.24
2023-09-01T10:44:41.826Z,33.20
2023-09-01T10:47:33.657Z,33.21
2023-09-01T10:50:02.700Z,33.45
2023-09-01T10:52:30.888Z,33.48
2023-09-01T10:55:00.586Z,33.38
2023-09-01T10:57:42.597Z,33.33
2023-09-01T11:00:26.239Z,33.35
2023-09-01T11:02:54.183Z,32.85
2023-09-01T11:05:40.236Z,33.48
2023-09-01T11:08:14.096Z,33.50
2023-09-01T11:10:41.364Z,33.34
2023-09-01T11:13:19.490Z,33.49
2023-09-01T11:15:48.601Z,33.29
2023-09-01T11:18:22.473Z,32.78
2023-09-01T11:20:51.404Z,32.67
2023-09-01T11:23:26.290Z,33.19
2023-09-01T11:26:00.647Z,33.34
2023-09-01T11:28:29.101Z,33.57
2023-09-01T11:31:05.195Z,33.72
2023-09-01T11:33:34.976Z,33.76
2023-09-01T11:36:12.393Z,33.88
2023-09-01T11:38:40.910Z,33.73
2023-09-01T11:41:13.235Z,33.55
2023-09-01T11:43:42.059Z,33.31
2023-09-01T11:46:09.588Z,33.61
2023-09-01T11:48:36.672Z,33.95
2023-09-01T11:51:03.695Z,34.26
2023-09-01T11:53:33.713Z,34.45
2023-09-01T11:56:04.582Z,34.60
2023-09-01T11:58:34.208Z,34.44
2023-09-01T12:01:12.118Z,34.32
2023-09-01T12:03:39.268Z,34.46
2023-09-01T12:06:40.232Z,34.66
2023-09-01T12:09:25.392Z,34.51
2023-09-01T12:11:56.821Z,34.76
2023-09-01T12:14:33.232Z,34.54
2023-09-01T12:17:01.568Z,34.34
2023-09-01T12:19:29.637Z,34.65
2023-09-01T12:21:58.873Z,34.44
2023-09-01T12:24:25.963Z,34.57
2023-09-01T12:26:52.997Z,34.52
2023-09-01T12:29:20.319Z,34.28
2023-09-01T12:31:47.303Z,34.35
2023-09-01T12:34:14.207Z,34.14
2023-09-01T12:36:41.096Z,33.88
2023-09-01T12:39:08.171Z,33.92
2023-09-01T12:41:35.017Z,34.07
2023-09-01T12:44:02.000Z,34.37
2023-09-01T12:46:29.720Z,34.14
2023-09-01T12:48:56.710Z,34.10
2023-09-01T12:51:23.642Z,34.66
2023-09-01T12:53:51.697Z,34.12
2023-09-01T12:56:18.742Z,33.84
2023-09-01T12:58:45.642Z,34.22
2023-09-01T13:01:12.608Z,34.45
2023-09-01T13:03:39.526Z,34.43
2023-09-01T13:06:11.392Z,34.42
2023-09-01T13:08:38.920Z,34.61
2023-09-01T13:11:14.545Z,34.53
2023-09-01T13:13:41.983Z,34.66
2023-09-01T13:16:11.128Z,34.77
2023-09-01T13:18:40.458Z,34.74
2023-09-01T13:21:07.488Z,34.56
2023-09-01T13:23:34.406Z,34.64
2023-09-01T13:26:01.621Z,34.74
2023-09-01T13:28:29.145Z,34.76
2023-09-01T13:30:58.435Z,34.34
2023-09-01T13:33:25.476Z,34.75
2023-09-01T13:35:55.120Z,34.57
2023-09-01T13:38:22.095Z,34.72
2023-09-01T13:40:56.121Z,34.85
2023-09-01T13:43:23.018Z,34.97
2023-09-01T13:45:49.985Z,34.61
2023-09-01T13:48:16.895Z,34.49
2023-09-01T13:50:45.650Z,34.55
2023-09-01T13:53:13.604Z,34.63
2023-09-01T13:55:40.633Z,34.73
2023-09-01T13:58:07.651Z,34.66
2023-09-01T14:00:34.656Z,34.56
2023-09-01T14:03:03.825Z,34.68
2023-09-01T14:05:30.694Z,34.74
2023-09-01T14:07:57.682Z,34.73
2023-09-01T14:10:24.604Z,34.82
2023-09-01T14:12:51.418Z,34.59
2023-09-01T14:15:18.271Z,34.73
2023-09-01T14:17:46.696Z,34.63
2023-09-01T14:20:13.636Z,34.54
2023-09-01T14:22:40.556Z,34.31
2023-09-01T14:25:07.938Z,34.41
2023-09-01T14:27:34.863Z,34.46
2023-09-01T14:30:02.227Z,34.53
2023-09-01T14:32:29.118Z,34.41
2023-09-01T14:34:56.015Z,34.48
2023-09-01T14:37:23.933Z,34.39
2023-09-01T14:39:50.828Z,33.85
2023-09-01T14:42:17.642Z,34.24
2023-09-01T14:44:44.492Z,33.98
2023-09-01T14:47:11.396Z,33.80
2023-09-01T14:49:38.336Z,33.50
2023-09-01T14:52:05.502Z,33.24
2023-09-01T14:54:32.368Z,33.09
2023-09-01T14:56:59.312Z,33.24
2023-09-01T14:59:27.274Z,33.28
2023-09-01T15:01:55.237Z,33.06
2023-09-01T15:04:22.231Z,33.15
2023-09-01T15:06:49.118Z,32.80
2023-09-01T15:09:16.437Z,32.92
2023-09-01T15:11:43.314Z,32.85
2023-09-01T15:14:10.237Z,32.97
2023-09-01T15:16:37.087Z,32.87
2023-09-01T15:19:04.088Z,32.91
2023-09-01T15:21:31.500Z,32.83
2023-09-01T15:23:58.535Z,32.64
2023-09-01T15:26:26.285Z,32.87
2023-09-01T15:28:53.193Z,32.86
2023-09-01T15:31:20.160Z,32.56
2023-09-01T15:33:47.036Z,32.55
2023-09-01T15:36:13.958Z,32.38
2023-09-01T15:38:40.966Z,32.29
2023-09-01T15:41:10.496Z,32.28
2023-09-01T15:43:39.026Z,32.10
2023-09-01T15:46:09.947Z,32.15
2023-09-01T15:48:37.746Z,32.02
2023-09-01T15:51:04.987Z,32.09
2023-09-01T15:53:32.013Z,32.11
2023-09-01T15:56:01.955Z,31.86
2023-09-01T15:58:29.253Z,31.62
2023-09-01T16:01:09.850Z,31.62
2023-09-01T16:03:52.786Z,31.85
2023-09-01T16:06:21.565Z,31.53
2023-09-01T16:08:48.548Z,31.29
2023-09-01T16:11:15.532Z,31.49
2023-09-01T16:13:42.504Z,31.43
2023-09-01T16:16:09.731Z,31.48
2023-09-01T16:18:36.805Z,31.56
2023-09-01T16:21:05.489Z,31.11
2023-09-01T16:23:34.292Z,30.86
2023-09-01T16:26:01.302Z,30.81
2023-09-01T16:28:28.272Z,30.48
2023-09-01T16:30:55.210Z,30.75
2023-09-01T16:33:22.233Z,30.49
2023-09-01T16:36:00.424Z,30.58
2023-09-01T16:38:30.322Z,30.45
2023-09-01T16:40:59.869Z,30.55
2023-09-01T16:43:27.326Z,30.50
2023-09-01T16:45:54.908Z,30.60
2023-09-01T16:48:23.304Z,30.51
2023-09-01T16:50:50.324Z,30.12
2023-09-01T16:53:17.377Z,29.87
2023-09-01T16:55:46.625Z,29.62
2023-09-01T16:58:17.644Z,29.55
2023-09-01T17:00:45.028Z,29.46
2023-09-01T17:03:12.136Z,29.52
2023-09-01T17:05:39.185Z,29.51
2023-09-01T17:08:06.322Z,29.65
2023-09-01T17:10:33.740Z,29.58
2023-09-01T17:13:01.300Z,29.65
2023-09-01T17:15:28.478Z,29.60
2023-09-01T17:17:56.769Z,29.16
2023-09-01T17:20:27.632Z,29.39
2023-09-01T17:22:55.300Z,29.35
2023-09-01T17:25:22.196Z,29.32
2023-09-01T17:27:49.008Z,29.23
2023-09-01T17:30:16.965Z,29.29
2023-09-01T17:32:44.147Z,29.06
2023-09-01T17:35:11.139Z,29.31
2023-09-01T17:37:38.119Z,29.00
2023-09-01T17:40:06.710Z,29.04
2023-09-01T17:42:33.780Z,29.05
2023-09-01T17:45:00.752Z,28.81
2023-09-01T17:47:27.924Z,28.89
2023-09-01T17:49:54.833Z,28.61
2023-09-01T17:52:21.814Z,28.68
2023-09-01T17:54:48.722Z,28.63
2023-09-01T17:57:15.723Z,28.36
2023-09-01T17:59:42.572Z,28.42
2023-09-01T18:02:11.464Z,28.40
2023-09-01T18:04:38.350Z,28.41
2023-09-01T18:07:07.189Z,28.19
2023-09-01T18:09:36.082Z,28.09
2023-09-01T18:12:03.744Z,28.10
2023-09-01T18:14:30.603Z,28.02
2023-09-01T18:16:58.202Z,27.82
2023-09-01T18:19:25.172Z,27.62
2023-09-01T18:21:52.575Z,27.67
2023-09-01T18:24:25.497Z,27.37
2023-09-01T18:26:52.461Z,27.35
2023-09-01T18:29:23.471Z,27.38
2023-09-01T18:31:52.009Z,27.13
2023-09-01T18:34:20.441Z,27.15
2023-09-01T18:36:47.792Z,27.31
2023-09-01T18:39:14.806Z,27.04
2023-09-01T18:41:43.315Z,27.26
2023-09-01T18:44:10.534Z,27.25
2023-09-01T18:46:38.586Z,27.36
2023-09-01T18:49:12.922Z,27.35
2023-09-01T18:51:40.593Z,27.24
2023-09-01T18:54:43.802Z,27.14
2023-09-01T18:57:14.671Z,27.25
2023-09-01T18:59:42.139Z,27.11
2023-09-01T19:02:36.900Z,27.14
2023-09-01T19:05:16.553Z,27.23
2023-09-01T19:07:43.994Z,27.06
2023-09-01T19:10:20.173Z,26.64
2023-09-01T19:12:50.090Z,26.69
2023-09-01T19:15:17.768Z,26.83
2023-09-01T19:17:45.098Z,26.81
2023-09-01T19:20:24.345Z,26.82
2023-09-01T19:22:52.983Z,26.53
2023-09-01T19:25:19.874Z,26.30
2023-09-01T19:28:05.496Z,26.28
2023-09-01T19:30:35.133Z,26.15
2023-09-01T19:33:02.314Z,26.23
2023-09-01T19:35:29.533Z,26.26
2023-09-01T19:37:56.798Z,26.29
2023-09-01T19:40:23.943Z,26.21
2023-09-01T19:42:51.168Z,26.23
2023-09-01T19:45:38.419Z,26.22
2023-09-01T19:48:06.073Z,26.28
2023-09-01T19:50:34.363Z,26.06
2023-09-01T19:53:13.101Z,26.17
2023-09-01T19:55:41.114Z,25.95
2023-09-01T19:58:07.956Z,25.96
2023-09-01T20:00:39.042Z,25.73
2023-09-01T20:03:08.325Z,25.50
2023-09-01T20:05:37.426Z,25.62
2023-09-01T20:08:05.398Z,25.73
2023-09-01T20:10:37.213Z,25.49
2023-09-01T20:13:09.032Z,25.38
2023-09-01T20:15:41.572Z,25.40
2023-09-01T20:18:17.010Z,25.47
2023-09-01T20:20:46.337Z,25.59
2023-09-01T20:23:13.361Z,25.69
2023-09-01T20:25:40.259Z,25.31
2023-09-01T20:28:07.543Z,25.38
2023-09-01T20:30:34.626Z,25.34
2023-09-01T20:33:01.522Z,25.37
2023-09-01T20:35:30.056Z,25.22
2023-09-01T20:37:56.955Z,25.04
2023-09-01T20:40:23.831Z,25.03
2023-09-01T20:42:53.157Z,24.92
2023-09-01T20:45:20.096Z,24.59
2023-09-01T20:47:46.939Z,24.65
2023-09-01T20:50:13.863Z,24.60
2023-09-01T20:52:40.991Z,24.53
2023-09-01T20:55:10.887Z,24.78
2023-09-01T20:57:45.796Z,24.80
2023-09-01T21:00:18.903Z,24.81
2023-09-01T21:02:48.945Z,24.95
2023-09-01T21:05:20.264Z,24.92
2023-09-01T21:07:49.815Z,24.94
2023-09-01T21:10:18.427Z,25.15
2023-09-01T21:12:45.569Z,24.94
2023-09-01T21:15:12.535Z,24.31
2023-09-01T21:17:39.462Z,24.26
2023-09-01T21:20:07.220Z,24.20
2023-09-01T21:22:34.168Z,24.05
2023-09-01T21:25:01.069Z,24.08
2023-09-01T21:27:28.055Z,24.26
2023-09-01T21:30:12.562Z,24.37
2023-09-01T21:32:39.783Z,24.71
2023-09-01T21:35:07.229Z,24.59
2023-09-01T21:37:36.907Z,24.63
2023-09-01T21:40:06.500Z,24.79
2023-09-01T21:42:33.588Z,24.61
2023-09-01T21:45:00.645Z,24.02
2023-09-01T21:47:27.646Z,24.18
2023-09-01T21:49:54.610Z,24.08
2023-09-01T21:52:21.565Z,23.92
2023-09-01T21:54:48.440Z,24.16
2023-09-01T21:57:18.424Z,24.21
2023-09-01T21:59:45.296Z,24.13
2023-09-01T22:02:12.214Z,24.30
2023-09-01T22:04:41.389Z,24.24
2023-09-01T22:07:08.895Z,24.30
2023-09-01T22:09:35.958Z,24.21
2023-09-01T22:12:03.869Z,24.28
2023-09-01T22:14:30.710Z,24.18
2023-09-01T22:16:57.625Z,24.32
2023-09-01T22:19:31.910Z,24.16
2023-09-01T22:21:59.917Z,24.28
2023-09-01T22:24:32.265Z,24.12
2023-09-01T22:27:00.121Z,23.97
2023-09-01T22:29:28.672Z,24.01
2023-09-01T22:31:58.313Z,24.07
2023-09-01T22:34:25.493Z,24.18
2023-09-01T22:36:52.380Z,23.90
2023-09-01T22:39:19.325Z,23.94
2023-09-01T22:41:46.259Z,24.11
2023-09-01T22:44:13.144Z,24.04
2023-09-01T22:46:40.150Z,24.09
2023-09-01T22:49:07.401Z,23.73
2023-09-01T22:51:34.363Z,23.82
2023-09-01T22:54:03.039Z,23.48
2023-09-01T22:56:30.539Z,23.44
2023-09-01T22:58:57.396Z,23.72
2023-09-01T23:01:24.250Z,23.78
2023-09-01T23:03:51.171Z,23.81
2023-09-01T23:06:18.037Z,23.77
2023-09-01T23:08:44.904Z,23.83
2023-09-01T23:11:16.439Z,23.66
2023-09-01T23:13:43.517Z,23.46
2023-09-01T23:16:10.360Z,23.45
2023-09-01T23:18:37.241Z,23.64
2023-09-01T23:21:04.240Z,23.55
2023-09-01T23:23:31.126Z,23.62
2023-09-01T23:25:58.003Z,23.53
2023-09-01T23:28:24.888Z,23.59
2023-09-01T23:30:51.755Z,23.64
2023-09-01T23:33:19.069Z,23.04
2023-09-01T23:35:46.066Z,23.27
2023-09-01T23:38:12.973Z,23.34
2023-09-01T23:40:40.348Z,23.48
2023-09-01T23:43:07.187Z,23.51
2023-09-01T23:45:34.014Z,23.41
2023-09-01T23:48:01.802Z,23.29
2023-09-01T23:50:28.794Z,23.13
2023-09-01T23:52:55.670Z,23.19
2023-09-01T23:55:22.566Z,23.05
2023-09-01T23:57:49.536Z,23.12
